createdAt,value
2018-07-27T00:00:10.698Z,10.90
2018-07-27T00:02:38.354Z,10.20
2018-07-27T00:05:05.782Z,10.43
2018-07-27T00:07:33.255Z,10.53
2018-07-27T00:10:00.595Z,10.10
2018-07-27T00:12:28.239Z,10.40
2018-07-27T00:14:55.712Z,9.70
2018-07-27T00:17:23.195Z,10.07
2018-07-27T00:19:50.591Z,11.23
2018-07-27T00:22:18.158Z,10.80
2018-07-27T00:24:45.595Z,9.70
2018-07-27T00:27:12.975Z,10.53
2018-07-27T00:29:40.323Z,10.30
2018-07-27T00:32:07.695Z,10.20
2018-07-27T00:34:35.252Z,10.30
2018-07-27T00:37:02.700Z,9.90
2018-07-27T00:39:30.048Z,10.17
2018-07-27T00:41:57.631Z,9.80
2018-07-27T00:44:24.965Z,10.23
2018-07-27T00:46:52.356Z,10.77
2018-07-27T00:49:19.671Z,10.13
2018-07-27T00:51:47.057Z,10.27
2018-07-27T00:54:14.547Z,10.30
2018-07-27T00:56:41.943Z,10.30
2018-07-27T00:59:10.319Z,9.97
2018-07-27T01:01:37.675Z,9.47
2018-07-27T01:04:05.106Z,8.53
2018-07-27T01:06:32.529Z,10.97
2018-07-27T01:08:59.896Z,9.50
2018-07-27T01:11:27.252Z,9.20
2018-07-27T01:13:54.656Z,9.20
2018-07-27T01:16:22.036Z,9.20
2018-07-27T01:18:49.656Z,9.27
2018-07-27T01:21:16.923Z,10.00
2018-07-27T01:23:44.288Z,9.27
2018-07-27T01:26:11.631Z,9.20
2018-07-27T01:28:39.092Z,8.70
2018-07-27T01:31:06.480Z,9.30
2018-07-27T01:33:33.899Z,10.67
2018-07-27T01:36:01.356Z,9.47
2018-07-27T01:38:28.708Z,8.60
2018-07-27T01:40:56.163Z,9.80
2018-07-27T01:43:23.568Z,9.53
2018-07-27T01:45:50.903Z,8.80
2018-07-27T01:48:18.271Z,9.23
2018-07-27T01:50:45.616Z,9.53
2018-07-27T01:53:13.046Z,8.67
2018-07-27T01:55:40.545Z,8.63
2018-07-27T01:58:07.992Z,8.57
2018-07-27T02:00:35.327Z,8.63
2018-07-27T02:03:02.671Z,8.57
2018-07-27T02:05:30.053Z,8.90
2018-07-27T02:07:57.397Z,9.40
2018-07-27T02:10:24.799Z,9.40
2018-07-27T02:12:52.281Z,8.37
2018-07-27T02:15:19.651Z,9.00
2018-07-27T02:17:46.924Z,9.50
2018-07-27T02:20:14.258Z,8.80
2018-07-27T02:22:41.687Z,8.03
2018-07-27T02:25:09.087Z,8.93
2018-07-27T02:27:36.396Z,8.77
2018-07-27T02:30:03.853Z,8.90
2018-07-27T02:32:31.223Z,9.03
2018-07-27T02:34:58.677Z,8.83
2018-07-27T02:37:26.054Z,9.03
2018-07-27T02:39:53.514Z,8.13
2018-07-27T02:42:20.868Z,8.70
2018-07-27T02:44:48.226Z,8.63
2018-07-27T02:47:15.590Z,9.00
2018-07-27T02:49:42.927Z,8.50
2018-07-27T02:52:10.395Z,8.50
2018-07-27T02:54:37.868Z,8.00
2018-07-27T02:57:05.302Z,8.50
2018-07-27T02:59:32.739Z,8.60
2018-07-27T03:02:00.138Z,8.30
2018-07-27T03:04:27.470Z,8.43
2018-07-27T03:06:54.815Z,8.63
2018-07-27T03:09:22.201Z,9.00
2018-07-27T03:11:50.703Z,8.70
2018-07-27T03:14:18.108Z,7.90
2018-07-27T03:16:45.479Z,7.83
2018-07-27T03:19:12.851Z,8.80
2018-07-27T03:21:40.167Z,9.37
2018-07-27T03:24:07.600Z,8.60
2018-07-27T03:26:34.984Z,8.50
2018-07-27T03:29:02.359Z,8.73
2018-07-27T03:31:29.839Z,8.77
2018-07-27T03:33:57.240Z,9.17
2018-07-27T03:36:24.636Z,8.97
2018-07-27T03:38:51.930Z,8.93
2018-07-27T03:41:19.315Z,7.80
2018-07-27T03:43:46.790Z,10.03
2018-07-27T03:46:14.143Z,8.80
2018-07-27T03:48:41.558Z,9.47
2018-07-27T03:51:08.967Z,9.53
2018-07-27T03:53:36.419Z,10.20
2018-07-27T03:56:03.922Z,9.60
2018-07-27T03:58:31.292Z,9.37
2018-07-27T04:00:58.722Z,10.10
2018-07-27T04:03:26.179Z,9.60
2018-07-27T04:05:53.499Z,9.53
2018-07-27T04:08:20.838Z,10.27
2018-07-27T04:10:48.299Z,9.50
2018-07-27T04:13:15.763Z,9.47
2018-07-27T04:15:43.288Z,9.80
2018-07-27T04:18:10.752Z,9.60
2018-07-27T04:20:38.225Z,9.77
2018-07-27T04:23:05.600Z,9.10
2018-07-27T04:25:32.962Z,8.93
2018-07-27T04:28:00.294Z,9.60
2018-07-27T04:30:27.774Z,9.50
2018-07-27T04:32:55.263Z,8.80
2018-07-27T04:35:22.726Z,8.50
2018-07-27T04:37:50.160Z,8.87
2018-07-27T04:40:23.338Z,8.53
2018-07-27T04:42:50.912Z,8.13
2018-07-27T04:45:18.284Z,9.50
2018-07-27T04:47:45.794Z,8.87
2018-07-27T04:50:13.143Z,8.60
2018-07-27T04:52:40.527Z,8.43
2018-07-27T04:55:07.845Z,9.13
2018-07-27T04:57:35.318Z,8.80
2018-07-27T05:00:02.818Z,9.27
2018-07-27T05:02:30.280Z,8.50
2018-07-27T05:04:57.674Z,8.77
2018-07-27T05:07:25.060Z,7.90
2018-07-27T05:09:52.411Z,8.13
2018-07-27T05:12:19.794Z,8.27
2018-07-27T05:14:47.230Z,9.20
2018-07-27T05:17:15.671Z,8.47
2018-07-27T05:19:43.088Z,8.50
2018-07-27T05:22:10.544Z,8.90
2018-07-27T05:24:37.890Z,7.77
2018-07-27T05:27:05.300Z,8.23
2018-07-27T05:29:32.847Z,8.20
2018-07-27T05:32:00.210Z,7.87
2018-07-27T05:34:27.816Z,8.20
2018-07-27T05:36:55.148Z,7.90
2018-07-27T05:39:22.490Z,8.37
2018-07-27T05:41:50.887Z,7.80
2018-07-27T05:44:18.227Z,8.07
2018-07-27T05:46:45.759Z,8.33
2018-07-27T05:49:13.187Z,8.00
2018-07-27T05:51:40.982Z,7.10
2018-07-27T05:54:08.371Z,7.87
2018-07-27T05:56:35.742Z,8.30
2018-07-27T05:59:04.204Z,7.80
2018-07-27T06:01:31.523Z,8.80
2018-07-27T06:03:58.815Z,7.43
2018-07-27T06:06:26.164Z,7.70
2018-07-27T06:08:53.543Z,8.03
2018-07-27T06:11:20.900Z,9.07
2018-07-27T06:13:48.218Z,7.60
2018-07-27T06:16:15.650Z,8.73
2018-07-27T06:18:44.023Z,8.10
2018-07-27T06:21:11.403Z,7.93
2018-07-27T06:23:38.814Z,9.10
2018-07-27T06:26:06.123Z,8.60
2018-07-27T06:28:33.555Z,8.50
2018-07-27T06:31:00.980Z,8.10
2018-07-27T06:33:28.351Z,7.97
2018-07-27T06:35:55.655Z,7.43
2018-07-27T06:38:22.938Z,8.37
2018-07-27T06:40:50.624Z,7.80
2018-07-27T06:43:17.916Z,8.90
2018-07-27T06:45:46.448Z,7.97
2018-07-27T06:48:18.697Z,8.30
2018-07-27T06:50:47.283Z,8.60
2018-07-27T06:53:14.724Z,9.10
2018-07-27T06:55:42.500Z,9.03
2018-07-27T06:58:10.181Z,8.93
2018-07-27T07:00:37.539Z,8.90
2018-07-27T07:03:04.898Z,9.53
2018-07-27T07:05:32.252Z,8.77
2018-07-27T07:07:59.559Z,8.80
2018-07-27T07:10:27.142Z,9.03
2018-07-27T07:12:54.470Z,8.10
2018-07-27T07:15:21.810Z,8.13
2018-07-27T07:17:49.191Z,8.23
2018-07-27T07:20:16.490Z,8.23
2018-07-27T07:22:43.758Z,7.50
2018-07-27T07:25:11.277Z,8.87
2018-07-27T07:27:38.573Z,9.33
2018-07-27T07:30:05.923Z,8.47
2018-07-27T07:32:33.294Z,8.53
2018-07-27T07:35:00.607Z,8.70
2018-07-27T07:37:27.866Z,8.17
2018-07-27T07:39:55.122Z,8.00
2018-07-27T07:42:22.407Z,8.60
2018-07-27T07:44:49.863Z,7.97
2018-07-27T07:47:17.222Z,8.50
2018-07-27T07:49:44.578Z,8.07
2018-07-27T07:52:11.915Z,8.40
2018-07-27T07:54:39.343Z,8.00
2018-07-27T07:57:06.603Z,9.50
2018-07-27T07:59:33.866Z,8.33
2018-07-27T08:02:01.315Z,8.30
2018-07-27T08:04:28.579Z,8.37
2018-07-27T08:06:55.922Z,8.30
2018-07-27T08:09:23.187Z,7.80
2018-07-27T08:11:51.461Z,8.77
2018-07-27T08:14:18.834Z,8.10
2018-07-27T08:16:46.150Z,8.30
2018-07-27T08:19:13.443Z,8.37
2018-07-27T08:21:40.786Z,7.80
2018-07-27T08:24:08.147Z,8.13
2018-07-27T08:26:40.134Z,7.73
2018-07-27T08:29:09.261Z,7.90
2018-07-27T08:31:36.668Z,7.37
2018-07-27T08:34:04.424Z,7.60
2018-07-27T08:36:32.751Z,7.70
2018-07-27T08:39:01.819Z,6.87
2018-07-27T08:41:29.259Z,7.77
2018-07-27T08:43:56.591Z,7.40
2018-07-27T08:46:24.366Z,7.43
2018-07-27T08:48:52.327Z,6.93
2018-07-27T08:51:19.747Z,6.80
2018-07-27T08:53:47.007Z,7.40
2018-07-27T08:56:14.438Z,7.90
2018-07-27T08:58:41.734Z,7.07
2018-07-27T09:01:09.021Z,7.70
2018-07-27T09:03:36.359Z,6.60
2018-07-27T09:06:03.745Z,6.23
2018-07-27T09:08:31.027Z,6.97
2018-07-27T09:10:58.422Z,6.67
2018-07-27T09:13:26.239Z,7.03
2018-07-27T09:15:53.819Z,6.20
2018-07-27T09:18:21.297Z,7.10
2018-07-27T09:20:48.825Z,7.10
2018-07-27T09:23:16.281Z,7.20
2018-07-27T09:25:43.567Z,6.83
2018-07-27T09:28:10.914Z,6.93
2018-07-27T09:30:38.166Z,6.80
2018-07-27T09:33:05.521Z,7.00
2018-07-27T09:35:32.919Z,8.00
2018-07-27T09:38:00.240Z,7.20
2018-07-27T09:40:27.634Z,6.33
2018-07-27T09:42:54.930Z,7.07
2018-07-27T09:45:22.227Z,7.27
2018-07-27T09:47:49.515Z,7.70
2018-07-27T09:50:16.805Z,7.10
2018-07-27T09:52:44.130Z,7.20
2018-07-27T09:55:11.434Z,7.30
2018-07-27T09:57:38.783Z,6.73
2018-07-27T10:00:06.443Z,6.50
2018-07-27T10:02:33.751Z,6.13
2018-07-27T10:05:01.059Z,6.60
2018-07-27T10:07:28.386Z,6.67
2018-07-27T10:09:55.670Z,7.07
2018-07-27T10:12:22.990Z,6.80
2018-07-27T10:14:50.243Z,6.70
2018-07-27T10:17:17.498Z,6.53
2018-07-27T10:19:44.867Z,6.40
2018-07-27T10:22:12.338Z,6.80
2018-07-27T10:24:39.599Z,6.77
2018-07-27T10:27:06.915Z,6.17
2018-07-27T10:29:34.176Z,6.30
2018-07-27T10:32:01.540Z,5.90
2018-07-27T10:34:28.916Z,6.77
2018-07-27T10:36:56.803Z,6.50
2018-07-27T10:39:24.124Z,6.60
2018-07-27T10:41:51.457Z,5.53
2018-07-27T10:44:18.795Z,5.97
2018-07-27T10:46:46.068Z,6.17
2018-07-27T10:49:13.422Z,6.20
2018-07-27T10:51:40.816Z,5.60
2018-07-27T10:54:08.855Z,6.60
2018-07-27T10:56:36.263Z,5.90
2018-07-27T10:59:03.562Z,5.77
2018-07-27T11:01:30.980Z,6.10
2018-07-27T11:03:58.371Z,6.10
2018-07-27T11:06:25.981Z,6.30
2018-07-27T11:08:53.425Z,5.90
2018-07-27T11:11:20.727Z,6.50
2018-07-27T11:13:47.976Z,6.20
2018-07-27T11:16:15.368Z,6.30
2018-07-27T11:18:42.962Z,6.20
2018-07-27T11:21:10.532Z,5.57
2018-07-27T11:23:37.948Z,5.60
2018-07-27T11:26:05.356Z,5.73
2018-07-27T11:28:32.658Z,5.80
2018-07-27T11:31:00.070Z,6.10
2018-07-27T11:33:28.039Z,6.73
2018-07-27T11:35:55.387Z,5.67
2018-07-27T11:38:22.768Z,6.07
2018-07-27T11:40:50.121Z,5.63
2018-07-27T11:43:17.479Z,5.57
2018-07-27T11:45:44.854Z,5.40
2018-07-27T11:48:12.418Z,5.77
2018-07-27T11:50:39.741Z,6.00
2018-07-27T11:53:07.078Z,5.43
2018-07-27T11:55:34.338Z,5.83
2018-07-27T11:58:01.618Z,5.60
2018-07-27T12:00:28.957Z,5.20
2018-07-27T12:02:56.331Z,5.03
2018-07-27T12:05:23.975Z,5.00
2018-07-27T12:07:51.315Z,5.33
2018-07-27T12:10:18.579Z,5.73
2018-07-27T12:12:45.947Z,6.10
2018-07-27T12:15:17.380Z,6.03
2018-07-27T12:17:45.451Z,6.20
2018-07-27T12:20:12.794Z,5.27
2018-07-27T12:22:40.050Z,5.80
2018-07-27T12:25:07.364Z,6.10
2018-07-27T12:27:34.619Z,5.67
2018-07-27T12:30:01.908Z,6.50
2018-07-27T12:32:29.198Z,6.13
2018-07-27T12:34:56.423Z,6.73
2018-07-27T12:37:23.682Z,5.60
2018-07-27T12:39:51.080Z,6.20
2018-07-27T12:42:18.345Z,5.60
2018-07-27T12:44:45.591Z,5.00
2018-07-27T12:47:12.878Z,5.77
2018-07-27T12:49:40.141Z,5.20
2018-07-27T12:52:07.479Z,5.13
2018-07-27T12:54:34.726Z,5.50
2018-07-27T12:57:02.018Z,5.27
2018-07-27T12:59:29.418Z,4.90
2018-07-27T13:01:56.658Z,4.50
2018-07-27T13:04:23.938Z,4.57
2018-07-27T13:06:51.185Z,4.90
2018-07-27T13:09:18.507Z,4.63
2018-07-27T13:11:45.754Z,4.57
2018-07-27T13:14:13.022Z,4.40
2018-07-27T13:16:40.330Z,4.83
2018-07-27T13:19:07.596Z,4.30
2018-07-27T13:21:34.929Z,4.67
2018-07-27T13:24:02.674Z,4.10
2018-07-27T13:26:29.995Z,4.67
2018-07-27T13:28:58.411Z,4.70
2018-07-27T13:31:31.513Z,4.80
2018-07-27T13:34:05.303Z,4.23
2018-07-27T13:36:32.627Z,4.13
2018-07-27T13:39:00.983Z,4.13
2018-07-27T13:41:28.212Z,4.57
2018-07-27T13:43:55.480Z,4.20
2018-07-27T13:46:22.840Z,4.07
2018-07-27T13:48:50.055Z,4.40
2018-07-27T13:51:17.382Z,4.17
2018-07-27T13:53:44.634Z,4.10
2018-07-27T13:56:11.921Z,4.20
2018-07-27T13:58:39.155Z,4.10
2018-07-27T14:01:06.470Z,4.20
2018-07-27T14:03:33.747Z,3.90
2018-07-27T14:06:01.050Z,3.70
2018-07-27T14:08:28.381Z,4.00
2018-07-27T14:10:55.626Z,3.90
2018-07-27T14:13:22.903Z,3.63
2018-07-27T14:15:50.154Z,4.23
2018-07-27T14:18:17.406Z,4.50
2018-07-27T14:20:44.644Z,4.03
2018-07-27T14:23:11.898Z,4.43
2018-07-27T14:25:39.170Z,3.90
2018-07-27T14:28:06.444Z,4.27
2018-07-27T14:30:36.085Z,4.67
2018-07-27T14:33:03.475Z,4.40
2018-07-27T14:35:30.803Z,4.43
2018-07-27T14:37:58.071Z,4.30
2018-07-27T14:40:25.405Z,4.60
2018-07-27T14:42:52.630Z,4.17
2018-07-27T14:45:19.896Z,4.83
2018-07-27T14:47:47.130Z,4.10
2018-07-27T14:50:14.496Z,4.80
2018-07-27T14:52:41.887Z,4.80
2018-07-27T14:55:09.113Z,4.27
2018-07-27T14:57:36.404Z,4.77
2018-07-27T15:00:03.908Z,4.80
2018-07-27T15:02:31.174Z,4.03
2018-07-27T15:04:58.446Z,4.47
2018-07-27T15:07:27.355Z,4.33
2018-07-27T15:09:54.611Z,4.23
2018-07-27T15:12:21.904Z,3.93
2018-07-27T15:14:49.242Z,4.33
2018-07-27T15:17:16.606Z,4.40
2018-07-27T15:19:44.039Z,4.60
2018-07-27T15:22:11.395Z,5.30
2018-07-27T15:24:38.726Z,4.90
2018-07-27T15:27:06.063Z,5.13
2018-07-27T15:29:33.339Z,5.57
2018-07-27T15:32:00.701Z,4.70
2018-07-27T15:34:27.960Z,4.63
2018-07-27T15:36:55.313Z,4.17
2018-07-27T15:39:23.176Z,4.20
2018-07-27T15:41:50.587Z,4.40
2018-07-27T15:44:17.956Z,4.30
2018-07-27T15:46:45.373Z,4.43
2018-07-27T15:49:12.962Z,4.60
2018-07-27T15:51:40.607Z,4.30
2018-07-27T15:54:08.097Z,3.87
2018-07-27T15:56:35.448Z,4.17
2018-07-27T15:59:03.035Z,3.97
2018-07-27T16:01:30.452Z,4.07
2018-07-27T16:03:57.918Z,4.37
2018-07-27T16:06:25.222Z,4.40
2018-07-27T16:08:52.623Z,4.40
2018-07-27T16:11:20.026Z,4.40
2018-07-27T16:13:47.384Z,4.40
2018-07-27T16:16:14.759Z,3.87
2018-07-27T16:18:42.125Z,4.00
2018-07-27T16:21:09.558Z,3.67
2018-07-27T16:23:36.902Z,4.00
2018-07-27T16:26:04.219Z,3.90
2018-07-27T16:28:31.575Z,3.80
2018-07-27T16:30:58.879Z,4.23
2018-07-27T16:33:26.260Z,4.00
2018-07-27T16:35:53.643Z,4.50
2018-07-27T16:38:20.969Z,4.70
2018-07-27T16:40:48.250Z,4.57
2018-07-27T16:43:15.631Z,4.90
2018-07-27T16:45:43.043Z,5.50
2018-07-27T16:48:10.338Z,5.03
2018-07-27T16:50:37.647Z,4.90
2018-07-27T16:53:04.920Z,5.70
2018-07-27T16:55:32.216Z,4.97
2018-07-27T16:57:59.546Z,5.27
2018-07-27T17:00:26.810Z,5.33
2018-07-27T17:02:54.091Z,6.13
2018-07-27T17:05:21.347Z,5.90
2018-07-27T17:07:48.733Z,5.23
2018-07-27T17:10:16.072Z,5.70
2018-07-27T17:12:43.508Z,5.20
